Terminal Aerodrome Forecast
Issued by NWS Springfield, MO

Home | Current Version | Previous Version | Text Only | Print | Product List | Glossary On
Versions: 1 2 3 4 5 6 7 8 9 10 11 12 13 14 15 16 17 18 19 20 21 22 23
000
FTUS43 KSGF 181700
TAFSGF
TAF
KSGF 181726Z 1818/1918 09010KT P6SM BKN020 BKN200
      TEMPO 1818/1822 SCT020
     FM182300 12006KT P6SM SCT020 SCT200
     FM190500 14005KT 5SM BR SCT008 BKN012
     FM190800 14005KT 5SM BR OVC008
     FM191400 15007KT P6SM SCT008 BKN016=

USA.gov is the U.S. government's official web portal to all federal, state and local government web resources and services.